createdAt,value
2019-05-20T00:11:15.756Z,12.00
2019-05-20T00:16:43.541Z,12.10
2019-05-20T00:31:02.006Z,12.00
2019-05-20T00:36:28.536Z,11.90
2019-05-20T00:42:30.918Z,11.70
2019-05-20T00:45:12.841Z,11.70
2019-05-20T00:47:56.197Z,11.70
2019-05-20T00:59:32.645Z,11.50
2019-05-20T01:02:06.649Z,11.50
2019-05-20T01:08:06.346Z,11.60
2019-05-20T01:25:51.550Z,11.50
2019-05-20T01:34:55.920Z,11.30
2019-05-20T01:37:52.422Z,11.30
2019-05-20T02:16:47.649Z,11.50
2019-05-20T02:19:37.051Z,11.60
2019-05-20T02:22:12.962Z,11.50
2019-05-20T02:34:16.278Z,11.60
2019-05-20T02:46:13.345Z,11.60
2019-05-20T02:49:01.648Z,11.50
2019-05-20T03:09:24.990Z,11.50
2019-05-20T03:14:51.058Z,11.50
2019-05-20T03:20:39.928Z,11.40
2019-05-20T03:26:29.319Z,11.40
2019-05-20T03:29:05.427Z,11.40
2019-05-20T03:31:59.874Z,11.20
2019-05-20T03:34:46.678Z,11.20
2019-05-20T03:37:24.963Z,11.20
2019-05-20T03:40:03.400Z,11.30
2019-05-20T03:45:55.378Z,11.30
2019-05-20T03:48:17.202Z,11.30
2019-05-20T03:51:17.859Z,11.40
2019-05-20T03:54:12.370Z,11.40
2019-05-20T03:56:57.060Z,11.40
2019-05-20T04:02:41.544Z,11.40
2019-05-20T04:11:14.334Z,11.50
2019-05-20T04:14:01.812Z,11.50
2019-05-20T04:16:37.305Z,11.50
2019-05-20T04:19:23.711Z,11.60
2019-05-20T04:27:53.857Z,11.50
2019-05-20T04:30:37.722Z,11.50
2019-05-20T04:38:58.252Z,11.40
2019-05-20T04:41:35.452Z,11.50
2019-05-20T04:44:07.592Z,11.40
2019-05-20T04:52:40.243Z,11.40
2019-05-20T05:01:15.643Z,11.10
2019-05-20T05:12:56.833Z,11.20
2019-05-20T05:15:55.543Z,11.20
2019-05-20T05:18:34.059Z,11.30
2019-05-20T05:32:55.664Z,11.80
2019-05-20T06:23:58.638Z,11.90
2019-05-20T06:26:29.566Z,11.90
2019-05-20T06:32:01.223Z,11.90
2019-05-20T06:43:29.430Z,11.80
2019-05-20T06:51:56.655Z,11.70
2019-05-20T07:00:45.014Z,11.70
2019-05-20T07:03:52.712Z,11.80
2019-05-20T07:06:46.029Z,11.90
2019-05-20T07:09:35.411Z,11.90
2019-05-20T07:17:50.329Z,12.30
2019-05-20T07:24:06.108Z,12.50
2019-05-20T08:25:36.460Z,13.50
2019-05-20T08:28:11.505Z,14.20
2019-05-20T08:30:58.796Z,14.20
2019-05-20T08:33:37.347Z,14.40
2019-05-20T08:36:06.166Z,14.80
2019-05-20T08:38:42.038Z,14.90
2019-05-20T08:44:11.490Z,14.60
2019-05-20T08:46:43.986Z,14.40
2019-05-20T08:52:57.646Z,14.40
2019-05-20T08:54:53.437Z,14.50
2019-05-20T08:57:45.733Z,15.20
2019-05-20T09:00:12.976Z,15.90
2019-05-20T09:02:50.496Z,16.40
2019-05-20T09:23:27.744Z,17.40
2019-05-20T09:26:08.434Z,16.60
2019-05-20T11:14:06.895Z,16.80
2019-05-20T11:16:34.985Z,16.90
2019-05-20T11:19:07.913Z,17.20
2019-05-20T11:21:37.334Z,17.30
2019-05-20T11:24:14.088Z,17.40
2019-05-20T11:26:46.575Z,17.50
2019-05-20T11:29:19.056Z,17.40
2019-05-20T11:31:56.711Z,17.50
2019-05-20T11:34:26.931Z,17.60
2019-05-20T11:37:04.512Z,17.40
2019-05-20T11:39:40.335Z,17.30
2019-05-20T11:42:10.886Z,17.40
2019-05-20T11:44:49.495Z,17.30
2019-05-20T11:47:21.995Z,17.30
2019-05-20T11:49:55.212Z,17.20
2019-05-20T11:52:29.378Z,17.30
2019-05-20T11:55:02.594Z,17.40
2019-05-20T11:57:37.925Z,17.30
2019-05-20T12:00:10.604Z,17.30
2019-05-20T12:02:45.286Z,17.10
2019-05-20T12:05:19.506Z,17.20
2019-05-20T12:07:50.824Z,17.30
2019-05-20T12:10:23.251Z,17.20
2019-05-20T12:12:52.711Z,17.30
2019-05-20T12:15:22.634Z,17.30
2019-05-20T12:17:55.015Z,17.30
2019-05-20T12:20:44.173Z,17.20
2019-05-20T12:23:20.249Z,17.30
2019-05-20T12:26:09.531Z,17.40
2019-05-20T12:28:42.676Z,17.50
2019-05-20T12:31:17.353Z,17.30
2019-05-20T12:33:58.079Z,17.40
2019-05-20T12:36:34.811Z,17.40
2019-05-20T12:39:08.354Z,17.10
2019-05-20T12:41:42.087Z,17.10
2019-05-20T12:44:15.885Z,17.10
2019-05-20T12:46:52.981Z,17.00
2019-05-20T12:49:33.239Z,17.40
2019-05-20T12:52:47.289Z,17.60
2019-05-20T12:55:08.015Z,17.60
2019-05-20T13:00:30.797Z,17.90
2019-05-20T13:03:11.477Z,18.30
2019-05-20T13:05:52.092Z,18.90
2019-05-20T13:09:30.040Z,18.90
2019-05-20T13:11:24.923Z,18.60
2019-05-20T13:13:57.419Z,18.20
2019-05-20T13:16:33.069Z,17.60
2019-05-20T13:19:06.241Z,17.40
2019-05-20T13:21:39.661Z,17.00
2019-05-20T13:24:15.909Z,16.80
2019-05-20T13:27:07.481Z,16.70
2019-05-20T13:29:42.526Z,16.40
2019-05-20T13:35:20.837Z,16.00
2019-05-20T13:41:04.239Z,15.00
2019-05-20T13:43:32.987Z,15.00
2019-05-20T13:46:01.774Z,15.10
2019-05-20T13:48:30.638Z,14.90
2019-05-20T13:50:59.490Z,15.00
2019-05-20T13:53:28.244Z,15.10
2019-05-20T13:55:56.992Z,15.20
2019-05-20T13:58:25.785Z,15.40
2019-05-20T14:00:54.633Z,15.60
2019-05-20T14:03:23.372Z,15.80
2019-05-20T14:05:52.144Z,15.90
2019-05-20T14:08:20.983Z,15.90
2019-05-20T14:11:03.113Z,16.10
2019-05-20T14:13:20.175Z,16.20
2019-05-20T14:15:51.827Z,16.40
2019-05-20T14:18:20.684Z,16.80
2019-05-20T14:20:49.577Z,17.40
2019-05-20T14:23:18.378Z,17.90
2019-05-20T14:25:47.131Z,18.40
2019-05-20T14:28:15.999Z,18.60
2019-05-20T14:30:45.332Z,18.80
2019-05-20T14:33:14.180Z,18.90
2019-05-20T14:35:42.997Z,18.70
2019-05-20T14:38:11.775Z,18.80
2019-05-20T14:40:40.652Z,18.90
2019-05-20T14:43:09.642Z,18.80
2019-05-20T14:45:41.068Z,18.60
2019-05-20T14:48:10.034Z,18.40
2019-05-20T14:50:39.161Z,18.40
2019-05-20T14:53:08.580Z,18.40
2019-05-20T14:55:42.602Z,18.20
2019-05-20T14:58:09.660Z,18.30
2019-05-20T15:00:38.521Z,18.30
2019-05-20T15:03:09.506Z,18.30
2019-05-20T15:05:38.563Z,18.30
2019-05-20T15:08:07.878Z,18.20
2019-05-20T15:10:37.295Z,18.20
2019-05-20T15:13:06.053Z,18.10
2019-05-20T15:15:35.413Z,17.90
2019-05-20T15:18:05.103Z,17.80
2019-05-20T15:20:33.995Z,17.80
2019-05-20T15:23:04.393Z,17.70
2019-05-20T15:25:34.241Z,17.70
2019-05-20T15:28:04.139Z,17.70
2019-05-20T15:30:33.140Z,17.70
2019-05-20T15:33:03.018Z,17.70
2019-05-20T15:35:32.033Z,17.70
2019-05-20T15:38:02.338Z,17.70
2019-05-20T15:40:32.710Z,17.50
2019-05-20T15:43:01.533Z,17.50
2019-05-20T15:45:30.392Z,17.60
2019-05-20T15:48:00.572Z,17.40
2019-05-20T15:50:29.462Z,17.40
2019-05-20T15:52:58.372Z,16.90
2019-05-20T15:55:27.227Z,16.60
2019-05-20T15:57:56.107Z,16.40
2019-05-20T16:00:25.017Z,16.30
2019-05-20T16:02:55.365Z,16.20
2019-05-20T16:05:24.107Z,16.20
2019-05-20T16:17:32.771Z,16.40
2019-05-20T16:20:02.630Z,16.50
2019-05-20T16:22:34.020Z,16.50
2019-05-20T16:25:02.783Z,16.30
2019-05-20T16:27:32.821Z,16.30
2019-05-20T16:30:06.619Z,16.20
2019-05-20T16:32:41.583Z,16.30
2019-05-20T16:35:16.215Z,16.40
2019-05-20T16:37:49.179Z,16.50
2019-05-20T16:40:19.537Z,16.50
2019-05-20T16:45:58.696Z,16.40
2019-05-20T18:03:54.572Z,15.00
2019-05-20T18:12:27.887Z,14.80
2019-05-20T18:14:58.177Z,14.70
2019-05-20T18:17:26.881Z,14.70
2019-05-20T18:19:55.579Z,14.60
2019-05-20T18:22:24.339Z,14.60
2019-05-20T18:24:53.122Z,14.50
2019-05-20T22:18:13.720Z,11.40
